Airfield :
LOGIN :

Register | Disclaimer

   EN    FR    IT 

 










Legend :    VFR   Marginal VFR   IFR   Intensive IFR   Very Intensive IFR
Visi :
Ceiling :
>= 8 km
>= 3000ft
5 to 8 km
1000 to 3000 ft
1500m to 5 km
500 to 1000 ft
800 to 1500m
200 to 500 ft
< 800m
< 200 ft
Symbols :   Thunderstorms  Fog  Heavy snow  Heavy precipitations  Wind > 20 kt
SIGMETs :     Misc.  Thunderstorms  Icing  Turbulence  Mountain Waves  Volcanic Ashes






- Airport Elevation : 24 ft
- IATA code : SGD


EKSB - Sonderborg

CURRENT METAR :
  • 280650Z 21009G19KT 180V250 9999 BKN015 12/10 Q1016

EXPIRED METARs :
  • 280620Z 22008KT 180V260 9999 BKN015 12/10 Q1016
  • 280550Z 22008KT 190V260 9999 BKN015 12/10 Q1016
  • 280520Z 21008KT 180V240 9999 BKN015 12/10 Q1016
  • 280450Z 22009G20KT 180V260 9999 BKN017 13/09 Q1016
  • 280420Z 21010KT 170V240 9999 BKN020 13/10 Q1016

TAF TAF EKSB
Valid from the 28 at 06:00 until the 28 at 15:00 UTC


280605Z 2806/2815 20010KT 9999 BKN015
BECMG 2806/2809 BKN010
BECMG 2810/2813 SCT013



MET'MAP, your aeronautical weather chart ! - Copyright ORBIFLY December 2007 - Disclaimer

ORBIFLY MET'MAP TEAM :

Programming & Development : Alexandra Zaïnal
Concept & original design : Baudouin d'Aumeries
Assistance for programming : Marc-Olivier Méhu
Technical & hardware support : Manuel Goepfert

Contact : metmap@orbifly.com




SOURCES & CREDITS :

   NOAA